Time;durP1;ratioP1;P1;durP2;ratioP2;P2;SDS_P1;SDS_P2;PMS_P1;PMS_P2;Temp;Humidity;BMP_temperature;BMP_pressure;BME280_temperature;BME280_humidity;BME280_pressure;Samples;Min_cycle;Max_cycle;Signal;HPM_P1;HPM_P2
2023/06/02 00:01:31;;;;;;;21.13;3.92;;;;;;;10.91;68.75;101411.66;5073012;28;20445;-57
2023/06/02 00:04:02;;;;;;;17.45;4.40;;;;;;;10.94;69.05;101412.41;5071321;28;20052;-56
2023/06/02 00:06:34;;;;;;;25.08;4.68;;;;;;;10.84;69.04;101406.59;5068831;28;20070;-57
2023/06/02 00:09:04;;;;;;;16.83;3.53;;;;;;;10.83;68.94;101417.22;5072435;28;20732;-57
2023/06/02 00:11:36;;;;;;;32.40;4.57;;;;;;;10.81;69.44;101419.06;5070647;28;20553;-57
2023/06/02 00:14:04;;;;;;;16.20;4.73;;;;;;;10.81;69.54;101419.91;5073438;28;20052;-57
2023/06/02 00:16:34;;;;;;;25.17;6.07;;;;;;;10.71;69.46;101421.16;5071211;28;20723;-57
2023/06/02 00:19:00;;;;;;;23.70;4.85;;;;;;;10.66;69.25;101420.47;5072443;28;20498;-57
2023/06/02 00:21:27;;;;;;;19.88;3.70;;;;;;;10.60;69.69;101424.19;5069765;28;20045;-57
2023/06/02 00:23:54;;;;;;;21.33;4.90;;;;;;;10.59;69.95;101426.88;5071903;28;20128;-57
2023/06/02 00:26:20;;;;;;;18.67;4.38;;;;;;;10.52;70.43;101431.50;5072247;28;20052;-57
2023/06/02 00:28:47;;;;;;;18.70;4.25;;;;;;;10.54;70.93;101426.16;5070492;28;20080;-57
2023/06/02 00:31:14;;;;;;;30.25;5.78;;;;;;;10.43;70.78;101427.41;5070523;28;20050;-57
2023/06/02 00:33:41;;;;;;;18.98;3.75;;;;;;;10.41;70.63;101423.97;5072287;28;20048;-57
2023/06/02 00:36:08;;;;;;;22.73;5.22;;;;;;;10.36;70.78;101431.16;5072232;28;20098;-57
2023/06/02 00:38:35;;;;;;;16.27;4.43;;;;;;;10.44;70.24;101426.47;5065772;28;20055;-57
2023/06/02 00:41:01;;;;;;;23.05;4.82;;;;;;;10.44;70.65;101426.47;5073801;28;20052;-57
2023/06/02 00:43:28;;;;;;;29.70;5.55;;;;;;;10.36;71.15;101427.66;5072232;28;20068;-57
2023/06/02 00:45:54;;;;;;;19.98;5.38;;;;;;;10.37;70.78;101422.34;5072171;28;20128;-57
2023/06/02 00:48:21;;;;;;;15.32;4.95;;;;;;;10.28;70.77;101427.88;5072426;28;20452;-57
2023/06/02 00:50:48;;;;;;;17.02;4.00;;;;;;;10.38;71.01;101429.34;5071227;28;20041;-57
2023/06/02 00:53:15;;;;;;;24.00;4.43;;;;;;;10.41;70.82;101429.25;5071861;28;20068;-57
2023/06/02 00:55:42;;;;;;;28.73;6.07;;;;;;;10.31;72.04;101417.22;5070339;28;20131;-57
2023/06/02 00:58:13;;;;;;;28.00;7.30;;;;;;;10.22;71.98;101423.69;5069809;28;20165;-57
2023/06/02 01:00:42;;;;;;;;;;;;;;;10.32;71.21;101423.38;5071992;28;20328;-57
2023/06/02 01:03:09;;;;;;;19.83;4.85;;;;;;;10.34;71.59;101421.59;5072050;28;19924;-57
2023/06/02 01:05:36;;;;;;;31.25;5.05;;;;;;;10.30;71.69;101420.78;5068277;28;20645;-57
2023/06/02 01:08:04;;;;;;;12.02;4.38;;;;;;;10.42;71.92;101430.09;5072093;28;20135;-57
2023/06/02 01:10:32;;;;;;;23.17;5.10;;;;;;;10.34;71.83;101427.72;5049373;28;20044;-57
2023/06/02 01:12:58;;;;;;;18.55;4.38;;;;;;;10.38;71.42;101433.75;5070166;28;21687;-57
2023/06/02 01:15:25;;;;;;;17.17;4.78;;;;;;;10.42;71.92;101436.25;5071750;28;20041;-57
2023/06/02 01:17:53;;;;;;;23.98;6.22;;;;;;;10.45;71.79;101440.59;5070087;28;20047;-57
2023/06/02 01:20:21;;;;;;;20.92;4.32;;;;;;;10.40;71.86;101443.38;5075204;28;20540;-57
2023/06/02 01:22:58;;;;;;;24.02;4.35;;;;;;;10.34;72.12;101440.06;5074751;28;20045;-57
2023/06/02 01:25:27;;;;;;;23.02;4.53;;;;;;;10.20;72.12;101437.84;5073058;28;20052;-57
2023/06/02 01:27:57;;;;;;;20.92;6.45;;;;;;;10.22;72.32;101444.81;5073945;28;20053;-57
2023/06/02 01:30:25;;;;;;;17.40;3.83;;;;;;;10.13;72.65;101442.47;5075597;28;20170;-57
2023/06/02 01:33:09;;;;;;;29.35;5.00;;;;;;;10.14;72.86;101446.00;5063349;28;20041;-57
2023/06/02 01:35:43;;;;;;;16.77;4.43;;;;;;;9.98;73.04;101446.47;5075938;28;20044;-57
2023/06/02 01:38:12;;;;;;;19.10;4.80;;;;;;;9.94;72.91;101444.88;5074082;28;20083;-57
2023/06/02 01:40:39;;;;;;;26.17;5.97;;;;;;;9.92;73.53;101446.66;5067026;28;20354;-57
2023/06/02 01:43:07;;;;;;;29.50;5.82;;;;;;;9.85;73.39;101450.44;5071890;28;20511;-57
2023/06/02 01:45:36;;;;;;;33.22;7.35;;;;;;;9.71;73.92;101441.16;5069667;28;20346;-57
2023/06/02 01:48:04;;;;;;;20.23;4.50;;;;;;;9.73;73.87;101447.25;5075937;28;20516;-57
2023/06/02 01:50:32;;;;;;;32.90;5.75;;;;;;;9.49;74.62;101448.84;5070687;28;20053;-57
2023/06/02 01:52:59;;;;;;;23.60;4.60;;;;;;;9.47;74.99;101440.13;5056138;28;20063;-57
2023/06/02 01:55:25;;;;;;;20.73;5.65;;;;;;;9.42;74.57;101444.69;5056229;28;20055;-57
2023/06/02 01:57:52;;;;;;;16.98;4.63;;;;;;;9.45;74.80;101446.34;5058185;28;20132;-58
2023/06/02 02:00:19;;;;;;;25.70;4.80;;;;;;;9.46;74.25;101448.09;5075370;28;20441;-57
2023/06/02 02:02:47;;;;;;;26.83;6.88;;;;;;;9.34;74.99;101449.34;5073485;28;20048;-57
2023/06/02 02:05:14;;;;;;;30.10;5.93;;;;;;;9.30;75.46;101448.56;5075987;28;20378;-57
2023/06/02 02:07:44;;;;;;;19.15;5.78;;;;;;;9.29;74.88;101451.25;5076303;28;20124;-57
2023/06/02 02:10:11;;;;;;;19.52;4.55;;;;;;;9.36;74.72;101453.63;5075755;28;20053;-57
2023/06/02 02:12:41;;;;;;;19.55;4.35;;;;;;;9.29;74.52;101452.09;5074471;28;20044;-57
2023/06/02 02:15:09;;;;;;;30.55;5.32;;;;;;;9.27;74.43;101456.56;5073205;28;20623;-57
2023/06/02 02:17:44;;;;;;;17.02;4.82;;;;;;;9.23;74.60;101452.25;5075300;28;20057;-57
2023/06/02 02:20:16;;;;;;;18.75;5.63;;;;;;;9.22;74.79;101463.75;5070526;28;20076;-57
2023/06/02 02:22:44;;;;;;;19.77;4.47;;;;;;;9.15;74.53;101460.41;5067364;28;20163;-57
2023/06/02 02:25:10;;;;;;;27.92;6.45;;;;;;;9.23;74.42;101457.53;5067098;28;20040;-57
2023/06/02 02:27:38;;;;;;;22.60;6.35;;;;;;;9.22;74.70;101463.75;5074203;28;20054;-57
2023/06/02 02:30:06;;;;;;;26.40;5.13;;;;;;;9.21;74.93;101462.00;5071755;28;20045;-57
2023/06/02 02:32:35;;;;;;;24.52;5.55;;;;;;;9.19;74.56;101466.47;5071785;28;20135;-57
2023/06/02 02:35:03;;;;;;;18.45;5.53;;;;;;;9.06;75.17;101459.81;5074398;28;20048;-57
2023/06/02 02:37:29;;;;;;;29.10;6.05;;;;;;;9.14;75.05;101457.81;5072157;28;20131;-57
2023/06/02 02:40:12;;;;;;;13.55;4.50;;;;;;;9.22;74.72;101461.09;5074596;28;20051;-57
2023/06/02 02:42:39;;;;;;;26.88;5.82;;;;;;;9.13;75.32;101456.09;5073171;28;20047;-57
2023/06/02 02:45:07;;;;;;;17.13;5.18;;;;;;;9.18;75.04;101454.19;5073562;28;20127;-57
2023/06/02 02:47:33;;;;;;;20.20;5.28;;;;;;;9.13;74.37;101453.44;5074574;28;20481;-57
2023/06/02 02:50:00;;;;;;;18.02;5.10;;;;;;;9.12;74.24;101457.88;5074378;28;20040;-57
2023/06/02 02:52:28;;;;;;;26.98;4.97;;;;;;;9.11;74.52;101464.03;5073865;28;20063;-57
2023/06/02 02:54:54;;;;;;;27.98;4.85;;;;;;;9.03;74.80;101465.19;5073533;28;20036;-57
2023/06/02 02:57:21;;;;;;;23.88;5.60;;;;;;;8.96;75.31;101469.75;5074249;28;20095;-57
2023/06/02 02:59:47;;;;;;;25.00;5.15;;;;;;;8.88;75.38;101477.88;5071669;28;20139;-57
2023/06/02 03:02:14;;;;;;;22.50;5.22;;;;;;;8.96;75.27;101480.31;5073670;28;20475;-57
2023/06/02 03:04:41;;;;;;;19.27;5.13;;;;;;;8.97;75.03;101472.34;5074624;28;20406;-57
2023/06/02 03:07:07;;;;;;;21.55;5.20;;;;;;;8.92;75.51;101474.22;5070566;28;20055;-57
2023/06/02 03:09:36;;;;;;;22.13;4.55;;;;;;;8.89;75.39;101486.63;5073959;28;20059;-57
2023/06/02 03:12:03;;;;;;;28.23;5.00;;;;;;;8.95;75.33;101479.41;5074117;28;20127;-57
2023/06/02 03:14:30;;;;;;;21.42;5.55;;;;;;;9.05;75.29;101479.16;5074259;28;20052;-57
2023/06/02 03:16:59;;;;;;;19.55;5.88;;;;;;;9.14;74.39;101484.19;5071512;28;20040;-57
2023/06/02 03:19:26;;;;;;;31.83;7.50;;;;;;;9.19;74.06;101487.56;5073722;28;20524;-57
2023/06/02 03:21:55;;;;;;;18.38;4.88;;;;;;;9.27;73.46;101485.59;5074531;28;20049;-58
2023/06/02 03:24:22;;;;;;;24.35;6.90;;;;;;;9.40;73.25;101491.38;5073538;28;20049;-56
2023/06/02 03:26:51;;;;;;;22.90;5.72;;;;;;;9.39;73.01;101489.63;5071399;28;20132;-56
2023/06/02 03:29:19;;;;;;;16.73;4.70;;;;;;;9.42;72.79;101489.53;5073184;28;20131;-56
2023/06/02 03:31:45;;;;;;;15.68;5.60;;;;;;;9.45;73.03;101491.22;5068260;28;20504;-56
2023/06/02 03:34:12;;;;;;;19.13;5.22;;;;;;;9.46;72.29;101485.88;5067556;28;20049;-57
2023/06/02 03:36:39;;;;;;;30.33;4.82;;;;;;;9.46;72.39;101495.59;5069856;28;20053;-56
2023/06/02 03:39:07;;;;;;;25.05;4.88;;;;;;;9.48;72.24;101493.75;5072898;28;20468;-57
2023/06/02 03:41:35;;;;;;;20.23;6.20;;;;;;;9.60;72.25;101493.41;5073844;28;20053;-56
2023/06/02 03:44:05;;;;;;;22.88;5.78;;;;;;;9.62;71.90;101499.50;5073298;28;20052;-58
2023/06/02 03:46:33;;;;;;;20.88;5.88;;;;;;;9.55;71.97;101503.25;5072977;28;20341;-58
2023/06/02 03:49:00;;;;;;;25.05;6.53;;;;;;;9.40;72.71;101501.94;5073527;28;20365;-57
2023/06/02 03:51:26;;;;;;;26.50;5.20;;;;;;;9.58;72.68;101502.28;5073324;28;20465;-57
2023/06/02 03:53:53;;;;;;;22.73;5.07;;;;;;;9.58;72.66;101505.81;5073983;28;20127;-57
2023/06/02 03:56:19;;;;;;;20.13;5.90;;;;;;;9.65;72.32;101509.97;5073290;28;20375;-57
2023/06/02 03:58:46;;;;;;;28.08;5.88;;;;;;;9.56;72.68;101512.88;5066914;28;20800;-57
2023/06/02 04:01:16;;;;;;;29.70;5.88;;;;;;;9.57;72.11;101514.63;5073312;28;20040;-59
2023/06/02 04:03:43;;;;;;;27.15;6.32;;;;;;;9.40;72.63;101517.75;5073465;28;20134;-57
2023/06/02 04:06:11;;;;;;;22.77;4.32;;;;;;;9.42;73.17;101515.94;5072903;28;20059;-59
2023/06/02 04:08:37;;;;;;;18.13;5.70;;;;;;;9.08;74.35;101518.66;5070288;28;20135;-57
2023/06/02 04:11:04;;;;;;;20.63;6.07;;;;;;;9.04;74.98;101519.63;5071360;28;20044;-59
2023/06/02 04:13:31;;;;;;;28.15;5.45;;;;;;;8.97;74.97;101530.34;5073454;28;20054;-57
2023/06/02 04:15:58;;;;;;;17.73;5.78;;;;;;;9.14;75.01;101526.41;5070570;28;20448;-58
2023/06/02 04:18:26;;;;;;;25.90;5.95;;;;;;;9.18;74.92;101530.66;5056944;28;20052;-58
2023/06/02 04:20:53;;;;;;;33.83;7.35;;;;;;;8.98;75.03;101524.16;5068926;28;20051;-56
2023/06/02 04:23:19;;;;;;;24.75;5.35;;;;;;;9.15;74.54;101536.03;5091940;28;20126;-56
2023/06/02 04:25:46;;;;;;;27.23;5.53;;;;;;;9.10;75.50;101530.00;5076452;28;20041;-57
2023/06/02 04:28:12;;;;;;;26.50;5.53;;;;;;;9.26;74.82;101536.59;5072039;28;20137;-58
2023/06/02 04:30:39;;;;;;;27.88;5.90;;;;;;;9.20;74.38;101536.75;5072555;28;20044;-57
2023/06/02 04:33:06;;;;;;;25.17;5.70;;;;;;;9.48;73.80;101538.63;5072152;28;20044;-57
2023/06/02 04:35:33;;;;;;;25.63;6.18;;;;;;;9.69;72.51;101535.41;5069927;28;20064;-57
2023/06/02 04:38:00;;;;;;;26.63;6.53;;;;;;;9.78;72.23;101528.97;5072250;28;20532;-56
2023/06/02 04:40:27;;;;;;;24.65;5.03;;;;;;;9.99;71.77;101531.84;5071997;28;20052;-57
2023/06/02 04:42:53;;;;;;;29.95;8.07;;;;;;;10.02;71.81;101531.75;5070880;28;20060;-57
2023/06/02 04:45:20;;;;;;;28.25;5.32;;;;;;;10.19;70.97;101541.81;5065876;28;20078;-57
2023/06/02 04:47:47;;;;;;;25.75;5.90;;;;;;;10.07;70.65;101536.00;5083971;28;20419;-57
2023/06/02 04:50:14;;;;;;;40.17;5.97;;;;;;;10.24;70.68;101542.53;5071125;28;20048;-58
2023/06/02 04:52:44;;;;;;;22.92;6.30;;;;;;;10.20;70.43;101538.25;5052677;28;20139;-57
2023/06/02 04:55:11;;;;;;;24.85;5.22;;;;;;;10.05;71.32;101543.13;5052530;28;20155;-56
2023/06/02 04:57:38;;;;;;;22.13;6.32;;;;;;;10.07;70.98;101536.00;5056993;28;20140;-57
2023/06/02 05:00:06;;;;;;;27.73;7.88;;;;;;;10.10;70.82;101535.91;5070106;28;20136;-56
2023/06/02 05:02:33;;;;;;;23.13;6.32;;;;;;;10.05;71.02;101539.59;5060103;28;20056;-56
2023/06/02 05:04:59;;;;;;;24.90;6.82;;;;;;;10.06;71.69;101543.97;5072861;28;20051;-57
2023/06/02 05:07:27;;;;;;;29.73;6.43;;;;;;;10.06;70.82;101550.09;5067245;28;20368;-57
2023/06/02 05:09:53;;;;;;;25.58;6.90;;;;;;;9.91;72.20;101545.31;5067234;28;20090;-57
2023/06/02 05:12:20;;;;;;;20.90;4.97;;;;;;;10.11;71.94;101548.19;5069821;28;20044;-57
2023/06/02 05:14:46;;;;;;;25.00;6.28;;;;;;;10.19;71.20;101547.09;5072318;28;20045;-56
2023/06/02 05:17:21;;;;;;;37.15;6.22;;;;;;;10.39;71.06;101547.34;5070551;28;20041;-57
2023/06/02 05:19:49;;;;;;;29.58;5.78;;;;;;;10.60;70.01;101544.94;5071329;28;20492;-57
2023/06/02 05:22:16;;;;;;;29.95;5.95;;;;;;;10.65;69.36;101556.22;5072311;28;20062;-58
2023/06/02 05:24:43;;;;;;;28.05;7.78;;;;;;;10.88;69.17;101550.16;5064269;28;20047;-58
2023/06/02 05:27:10;;;;;;;29.85;5.72;;;;;;;11.08;68.98;101560.03;5059019;28;20064;-57
2023/06/02 05:29:37;;;;;;;37.97;6.05;;;;;;;10.81;68.76;101560.06;5065638;28;20451;-58
2023/06/02 05:32:06;;;;;;;21.02;4.95;;;;;;;10.92;69.10;101564.13;5072613;28;20044;-57
2023/06/02 05:34:32;;;;;;;37.22;6.72;;;;;;;10.91;69.11;101565.06;5069675;28;20384;-57
2023/06/02 05:37:00;;;;;;;24.70;5.28;;;;;;;11.08;68.55;101567.97;5069803;28;20059;-57
2023/06/02 05:39:27;;;;;;;40.05;7.18;;;;;;;11.05;68.83;101568.09;5072104;28;20048;-57
2023/06/02 05:41:53;;;;;;;16.92;5.32;;;;;;;11.04;69.15;101571.66;5071269;28;20468;-57
2023/06/02 05:44:20;;;;;;;18.73;4.93;;;;;;;10.79;68.70;101583.06;5071843;28;20072;-57
2023/06/02 05:46:46;;;;;;;27.45;6.72;;;;;;;10.98;69.19;101580.66;5054821;28;20128;-57
2023/06/02 05:49:13;;;;;;;26.25;6.13;;;;;;;10.75;69.91;101576.13;5071908;28;20451;-57
2023/06/02 05:51:39;;;;;;;29.27;5.47;;;;;;;10.88;69.85;101578.38;5070052;28;20056;-58
2023/06/02 05:54:08;;;;;;;21.00;4.93;;;;;;;10.79;69.40;101580.41;5072100;28;20053;-56
2023/06/02 05:56:35;;;;;;;23.88;5.55;;;;;;;11.14;69.43;101573.06;5072014;28;20131;-57
2023/06/02 05:59:01;;;;;;;20.73;5.97;;;;;;;11.19;69.62;101579.03;5069464;28;20064;-57
2023/06/02 06:01:28;;;;;;;20.33;5.72;;;;;;;11.29;69.24;101581.38;5075965;28;20059;-57
2023/06/02 06:03:55;;;;;;;26.83;5.40;;;;;;;11.35;68.69;101583.81;5075522;28;20092;-57
2023/06/02 06:06:22;;;;;;;29.65;5.00;;;;;;;11.37;68.69;101584.63;5074125;28;20459;-57
2023/06/02 06:08:48;;;;;;;24.02;5.93;;;;;;;11.60;67.37;101585.56;5059318;28;20049;-57
2023/06/02 06:11:16;;;;;;;22.02;6.70;;;;;;;11.56;67.92;101593.63;5056065;28;20076;-57
2023/06/02 06:13:43;;;;;;;28.02;6.30;;;;;;;11.41;68.14;101591.53;5072493;28;20045;-57
2023/06/02 06:16:10;;;;;;;23.70;6.22;;;;;;;11.58;68.26;101585.63;5070177;28;20045;-57
2023/06/02 06:18:37;;;;;;;20.00;5.40;;;;;;;11.69;67.69;101595.84;5057986;28;20346;-56
2023/06/02 06:21:03;;;;;;;25.92;6.90;;;;;;;12.02;66.86;101598.16;5074725;28;20044;-56
2023/06/02 06:23:30;;;;;;;31.75;5.90;;;;;;;12.11;66.37;101597.78;5091417;28;20045;-57
2023/06/02 06:25:56;;;;;;;15.27;5.57;;;;;;;12.17;66.40;101600.22;5067957;28;20058;-57
2023/06/02 06:28:23;;;;;;;21.00;5.63;;;;;;;12.35;66.11;101601.28;5075118;28;20135;-57
2023/06/02 06:30:50;;;;;;;28.10;5.43;;;;;;;12.59;64.74;101594.13;5070647;28;20106;-56
2023/06/02 06:33:16;;;;;;;24.27;5.43;;;;;;;12.72;64.83;101601.56;5068035;28;20131;-58
2023/06/02 06:35:43;;;;;;;23.83;5.60;;;;;;;12.89;63.78;101601.75;5066382;28;20052;-57
2023/06/02 06:38:09;;;;;;;34.55;6.00;;;;;;;12.97;64.22;101596.97;5068950;28;20110;-58
2023/06/02 06:40:36;;;;;;;25.95;6.97;;;;;;;12.61;64.85;101602.88;5067725;28;20044;-57
2023/06/02 06:43:03;;;;;;;22.13;5.13;;;;;;;12.25;66.21;101610.53;5074816;28;20101;-58
2023/06/02 06:45:49;;;;;;;23.58;5.78;;;;;;;12.39;66.46;101607.31;5069545;28;20044;-57
2023/06/02 06:48:15;;;;;;;18.63;4.82;;;;;;;12.57;65.91;101611.03;5065355;28;20388;-57
2023/06/02 06:50:42;;;;;;;23.80;6.57;;;;;;;12.54;65.68;101608.50;5066559;28;20053;-59
2023/06/02 06:53:09;;;;;;;30.88;6.32;;;;;;;12.56;65.73;101618.13;5066688;28;20060;-56
2023/06/02 06:55:36;;;;;;;29.67;5.55;;;;;;;12.72;65.60;101610.41;5066782;28;20045;-56
2023/06/02 06:58:03;;;;;;;23.17;5.15;;;;;;;12.59;66.09;101615.34;5064080;28;20044;-56
2023/06/02 07:00:30;;;;;;;27.13;6.63;;;;;;;12.78;65.98;101619.91;5068160;28;20040;-57
2023/06/02 07:02:57;;;;;;;17.52;4.57;;;;;;;12.85;65.08;101622.25;5064561;28;20048;-57
2023/06/02 07:05:24;;;;;;;28.77;6.18;;;;;;;13.06;65.31;101613.44;5063903;28;20449;-59
2023/06/02 07:07:51;;;;;;;19.85;5.40;;;;;;;13.46;62.98;101622.38;5066989;28;20059;-56
2023/06/02 07:10:18;;;;;;;24.27;5.18;;;;;;;13.70;63.30;101631.94;5065657;28;20048;-57
2023/06/02 07:12:45;;;;;;;25.75;5.72;;;;;;;14.06;61.88;101633.84;5066562;28;20052;-56
2023/06/02 07:15:12;;;;;;;28.20;5.85;;;;;;;14.02;61.23;101631.38;5064550;28;20052;-56
2023/06/02 07:17:42;;;;;;;30.17;5.10;;;;;;;13.73;62.39;101631.78;5063827;28;20074;-58
2023/06/02 07:20:10;;;;;;;36.83;5.53;;;;;;;13.95;62.14;101628.16;5062952;28;20070;-55
2023/06/02 07:22:37;;;;;;;17.23;5.07;;;;;;;14.14;61.51;101629.03;5063292;28;20469;-56
2023/06/02 07:25:05;;;;;;;28.98;6.70;;;;;;;13.71;62.76;101633.63;5067138;28;20131;-57
2023/06/02 07:27:33;;;;;;;18.23;5.65;;;;;;;13.60;63.41;101633.28;5063466;28;20061;-55
2023/06/02 07:29:59;;;;;;;28.98;6.35;;;;;;;13.59;63.57;101634.19;5067129;28;20045;-57
2023/06/02 07:32:26;;;;;;;26.20;5.93;;;;;;;13.53;64.21;101631.81;5066619;28;20080;-55
2023/06/02 07:34:53;;;;;;;26.80;6.57;;;;;;;13.68;63.83;101632.91;5065158;28;20064;-56
2023/06/02 07:37:20;;;;;;;28.73;6.15;;;;;;;13.65;63.15;101633.94;5064771;28;20044;-57
2023/06/02 07:39:47;;;;;;;32.45;5.90;;;;;;;13.80;62.80;101642.13;5054014;28;20125;-57
2023/06/02 07:42:14;;;;;;;22.40;6.30;;;;;;;13.82;63.18;101634.97;5063023;28;20044;-56
2023/06/02 07:44:40;;;;;;;29.58;7.55;;;;;;;13.85;63.04;101646.31;5079226;28;20079;-56
2023/06/02 07:47:07;;;;;;;24.73;5.47;;;;;;;13.80;62.93;101644.78;5066645;28;20048;-57
2023/06/02 07:49:35;;;;;;;32.28;5.30;;;;;;;13.88;63.19;101647.97;5065080;28;20059;-57
2023/06/02 07:52:02;;;;;;;31.35;6.15;;;;;;;13.75;64.03;101645.00;5062912;28;20568;-57
2023/06/02 07:54:28;;;;;;;23.38;6.43;;;;;;;13.94;63.03;101655.66;5067997;28;20082;-59
2023/06/02 07:56:55;;;;;;;29.15;6.25;;;;;;;14.25;62.24;101654.25;5073143;28;20131;-57
2023/06/02 07:59:23;;;;;;;23.17;5.93;;;;;;;14.44;62.11;101649.78;5055153;28;20060;-56
2023/06/02 08:01:50;;;;;;;24.05;6.63;;;;;;;14.59;61.57;101663.28;5071802;28;20503;-57
2023/06/02 08:04:17;;;;;;;24.08;6.47;;;;;;;14.40;61.97;101664.19;5064755;28;20136;-57
2023/06/02 08:06:44;;;;;;;33.03;7.53;;;;;;;14.28;62.03;101664.75;5073657;28;20053;-56
2023/06/02 08:09:10;;;;;;;21.33;5.63;;;;;;;14.64;61.31;101661.31;5072570;28;20461;-56
2023/06/02 08:11:37;;;;;;;29.45;7.82;;;;;;;15.03;60.40;101657.63;5071729;28;20061;-56
2023/06/02 08:14:04;;;;;;;23.15;6.90;;;;;;;15.08;60.26;101660.91;5069906;28;20047;-57
2023/06/02 08:16:31;;;;;;;26.42;7.18;;;;;;;14.67;61.18;101661.16;5064383;28;20468;-56
2023/06/02 08:19:19;;;;;;;26.98;8.95;;;;;;;14.32;62.33;101663.69;5070062;28;20056;-57
2023/06/02 08:21:46;;;;;;;30.60;7.45;;;;;;;14.19;63.21;101665.16;5071144;28;20040;-56
2023/06/02 08:24:13;;;;;;;29.45;7.70;;;;;;;14.77;62.08;101662.41;5073321;28;20060;-57
2023/06/02 08:26:41;;;;;;;33.85;9.02;;;;;;;14.55;62.10;101667.03;5073158;28;20045;-56
2023/06/02 08:29:11;;;;;;;20.10;8.07;;;;;;;14.49;62.47;101668.19;5073207;28;20062;-56
2023/06/02 08:31:38;;;;;;;20.65;8.10;;;;;;;14.45;62.34;101670.13;5071504;28;20053;-56
2023/06/02 08:34:08;;;;;;;29.70;8.18;;;;;;;14.38;62.74;101666.03;5073070;28;20044;-57
2023/06/02 08:36:35;;;;;;;21.08;8.93;;;;;;;14.42;62.60;101672.94;5072630;28;20177;-56
2023/06/02 08:39:06;;;;;;;22.48;7.85;;;;;;;14.52;62.85;101673.38;5074057;28;20063;-57
2023/06/02 08:41:36;;;;;;;20.88;7.68;;;;;;;14.46;61.62;101673.66;5074075;28;20125;-57
2023/06/02 08:44:03;;;;;;;18.80;8.00;;;;;;;14.19;63.32;101676.69;5084849;28;20052;-57
2023/06/02 08:46:30;;;;;;;24.38;8.55;;;;;;;14.01;64.23;101682.81;5072945;28;20513;-56
2023/06/02 08:48:58;;;;;;;20.70;6.85;;;;;;;13.98;63.43;101686.50;5073166;28;20109;-56
2023/06/02 08:51:25;;;;;;;21.42;6.63;;;;;;;14.04;64.04;101678.25;5078913;28;20043;-56
2023/06/02 08:53:51;;;;;;;17.95;6.95;;;;;;;14.19;63.63;101686.44;5070915;28;20047;-56
2023/06/02 08:56:18;;;;;;;26.38;7.32;;;;;;;14.25;62.71;101680.84;5092620;28;20058;-56
2023/06/02 08:58:46;;;;;;;25.95;6.88;;;;;;;14.62;61.84;101680.00;5059609;28;20049;-56
2023/06/02 09:01:13;;;;;;;11.68;5.38;;;;;;;15.03;60.47;101678.91;5063710;28;20110;-56
2023/06/02 09:03:40;;;;;;;14.00;5.53;;;;;;;15.36;58.90;101675.50;5064693;28;20041;-57
2023/06/02 09:06:28;;;;;;;16.42;5.18;;;;;;;15.81;57.61;101676.75;5072213;28;20053;-55
2023/06/02 09:09:02;;;;;;;18.85;5.65;;;;;;;16.32;55.85;101685.53;5078127;28;20135;-56
2023/06/02 09:11:30;;;;;;;17.17;5.88;;;;;;;16.63;54.82;101685.63;5068521;28;20049;-57
2023/06/02 09:13:58;;;;;;;17.40;5.20;;;;;;;16.05;56.46;101679.91;5058328;28;20045;-57
2023/06/02 09:16:38;;;;;;;13.25;4.60;;;;;;;16.09;56.49;101681.44;5073591;28;20080;-56
2023/06/02 09:19:05;;;;;;;16.90;5.30;;;;;;;16.52;55.19;101688.91;5077199;28;20044;-56
2023/06/02 09:21:33;;;;;;;13.80;5.43;;;;;;;16.50;55.35;101690.78;5078272;28;20442;-56
2023/06/02 09:24:02;;;;;;;11.65;4.78;;;;;;;16.26;56.05;101693.00;5075932;28;20147;-57
2023/06/02 09:26:49;;;;;;;17.35;4.53;;;;;;;16.27;55.87;101695.59;5057285;28;20456;-55
2023/06/02 09:29:15;;;;;;;12.77;4.53;;;;;;;16.04;56.25;101701.31;5086602;28;20052;-56
2023/06/02 09:31:50;;;;;;;15.48;4.82;;;;;;;15.99;56.91;101701.56;5080650;28;20074;-56
2023/06/02 09:34:17;;;;;;;15.38;4.70;;;;;;;15.68;57.49;101704.97;5086870;28;20066;-57
2023/06/02 09:36:47;;;;;;;13.07;3.95;;;;;;;15.54;58.23;101700.31;5096528;28;20048;-57
2023/06/02 09:39:14;;;;;;;21.85;5.57;;;;;;;15.52;57.98;101695.06;5089816;28;20123;-57
2023/06/02 09:41:41;;;;;;;15.95;5.13;;;;;;;15.68;57.67;101702.28;5076176;28;20136;-56
2023/06/02 09:44:15;;;;;;;22.17;4.43;;;;;;;15.76;57.67;101700.13;5082505;28;20047;-56
2023/06/02 09:46:45;;;;;;;16.40;3.72;;;;;;;16.01;56.55;101709.50;5081669;28;20040;-57
2023/06/02 09:49:12;;;;;;;13.77;4.13;;;;;;;15.81;57.24;101705.19;5077365;28;20056;-57
2023/06/02 09:51:39;;;;;;;14.90;4.03;;;;;;;15.75;56.95;101717.00;5086917;28;20333;-57
2023/06/02 09:54:07;;;;;;;10.10;3.28;;;;;;;15.68;56.98;101718.28;5076047;28;20052;-57
2023/06/02 09:56:36;;;;;;;8.18;2.78;;;;;;;15.53;56.60;101712.78;5082169;28;20090;-56
2023/06/02 09:59:07;;;;;;;12.70;3.80;;;;;;;15.78;56.09;101714.22;5090617;28;20066;-56
2023/06/02 10:01:35;;;;;;;22.73;3.50;;;;;;;15.66;57.51;101720.16;5084549;28;20051;-56
2023/06/02 10:04:05;;;;;;;16.95;3.65;;;;;;;15.81;56.66;101724.72;5075758;28;20058;-57
2023/06/02 10:06:43;;;;;;;10.93;3.40;;;;;;;15.94;56.56;101723.13;5074924;28;20139;-58
2023/06/02 10:09:55;;;;;;;11.40;3.65;;;;;;;16.73;54.48;101720.69;5076207;28;20132;-56
2023/06/02 10:12:46;;;;;;;7.95;3.35;;;;;;;17.04;51.73;101715.34;5074089;28;20056;-57
2023/06/02 10:15:35;;;;;;;14.52;3.25;;;;;;;17.40;50.83;101722.16;5074518;28;20536;-56
2023/06/02 10:18:20;;;;;;;7.78;3.05;;;;;;;17.84;48.69;101722.25;5074689;28;20127;-57
2023/06/02 10:21:22;;;;;;;8.70;2.70;;;;;;;17.84;46.13;101719.59;5060702;28;20052;-56
2023/06/02 10:24:14;;;;;;;3.67;1.90;;;;;;;17.59;43.58;101718.41;5074894;28;20048;-59
2023/06/02 10:27:00;;;;;;;4.32;1.27;;;;;;;18.18;41.87;101715.72;5071965;28;20045;-56
2023/06/02 10:29:28;;;;;;;4.80;1.30;;;;;;;18.60;41.00;101715.75;5074369;28;20049;-56
2023/06/02 10:31:55;;;;;;;5.40;1.55;;;;;;;18.21;38.93;101714.66;5073712;28;20055;-57
2023/06/02 10:34:38;;;;;;;5.22;1.88;;;;;;;17.90;38.36;101716.56;5070103;28;20049;-57
2023/06/02 10:37:08;;;;;;;5.72;1.13;;;;;;;18.51;36.34;101710.03;5074941;28;20076;-57
2023/06/02 10:39:35;;;;;;;4.82;1.58;;;;;;;18.23;35.98;101702.91;5074999;28;20453;-57
2023/06/02 10:42:12;;;;;;;5.03;1.45;;;;;;;18.40;35.57;101703.66;5073407;28;20044;-57
2023/06/02 10:44:39;;;;;;;2.63;1.38;;;;;;;18.24;35.09;101699.25;5074213;28;20454;-56
2023/06/02 10:47:18;;;;;;;3.20;1.58;;;;;;;18.97;34.74;101697.34;5073610;28;20106;-57
2023/06/02 10:50:02;;;;;;;3.25;1.30;;;;;;;19.92;32.27;101690.84;5054430;28;20087;-57
2023/06/02 10:52:34;;;;;;;4.78;1.35;;;;;;;19.79;32.16;101695.38;5060529;28;20063;-57
2023/06/02 10:55:07;;;;;;;5.47;1.70;;;;;;;18.76;34.26;101697.75;5073498;28;20099;-57
2023/06/02 10:58:05;;;;;;;6.28;1.40;;;;;;;18.27;34.81;101711.59;5074109;28;20152;-58
2023/06/02 11:00:45;;;;;;;3.97;1.02;;;;;;;18.03;34.25;101701.50;5070434;28;20116;-57
2023/06/02 11:03:15;;;;;;;3.63;1.40;;;;;;;17.78;35.56;101699.41;5073572;28;20051;-58
2023/06/02 11:05:43;;;;;;;4.00;1.42;;;;;;;17.83;36.03;101693.78;5073653;28;20114;-59
2023/06/02 11:08:10;;;;;;;4.88;1.25;;;;;;;19.50;33.43;101694.66;5071486;28;20393;-58
2023/06/02 11:10:51;;;;;;;4.90;2.03;;;;;;;21.31;29.37;101690.66;5073518;28;20128;-57
2023/06/02 11:13:18;;;;;;;;;;;;;;;21.40;28.80;101693.50;5073829;28;20044;-56
2023/06/02 11:15:58;;;;;;;3.92;1.00;;;;;;;22.83;26.74;101692.06;5072897;28;19920;-55
2023/06/02 11:18:33;;;;;;;2.00;0.80;;;;;;;22.42;27.17;101693.63;5072117;28;20079;-57
2023/06/02 11:21:17;;;;;;;6.43;1.38;;;;;;;23.14;26.23;101697.63;5072828;28;20098;-57
2023/06/02 11:23:45;;;;;;;1.90;1.00;;;;;;;23.16;26.10;101698.34;5069070;28;20106;-57
2023/06/02 11:26:17;;;;;;;5.88;1.20;;;;;;;22.32;27.19;101703.44;5053519;28;20052;-55
2023/06/02 11:28:43;;;;;;;4.82;1.73;;;;;;;20.82;28.77;101695.19;5072786;28;20054;-55
2023/06/02 11:31:15;;;;;;;6.18;0.93;;;;;;;21.54;27.82;101700.50;5072787;28;20060;-55